createdAt,value
2024-03-05T00:01:23.760Z,64.50
2024-03-05T00:03:51.294Z,64.60
2024-03-05T00:06:18.274Z,65.20
2024-03-05T00:08:45.573Z,65.20
2024-03-05T00:11:12.916Z,65.10
2024-03-05T00:13:42.264Z,65.20
2024-03-05T00:16:09.723Z,65.50
2024-03-05T00:18:37.283Z,65.90
2024-03-05T00:21:05.185Z,66.10
2024-03-05T00:23:33.278Z,66.20
2024-03-05T00:26:00.906Z,66.50
2024-03-05T00:28:28.336Z,66.30
2024-03-05T00:30:55.753Z,66.20
2024-03-05T00:33:23.198Z,66.50
2024-03-05T00:35:50.817Z,66.80
2024-03-05T00:38:22.453Z,67.00
2024-03-05T00:40:55.849Z,67.10
2024-03-05T00:43:26.234Z,67.50
2024-03-05T00:45:53.605Z,67.50
2024-03-05T00:48:20.697Z,67.70
2024-03-05T00:50:48.094Z,68.00
2024-03-05T00:53:17.130Z,68.10
2024-03-05T00:55:44.322Z,68.00
2024-03-05T00:58:11.874Z,67.70
2024-03-05T01:00:41.160Z,67.80
2024-03-05T01:03:08.428Z,67.60
2024-03-05T01:05:35.761Z,67.20
2024-03-05T01:08:04.297Z,67.90
2024-03-05T01:10:31.669Z,68.60
2024-03-05T01:12:58.974Z,69.00
2024-03-05T01:15:26.826Z,69.00
2024-03-05T01:17:56.882Z,68.50
2024-03-05T01:20:24.092Z,69.30
2024-03-05T01:22:51.609Z,69.70
2024-03-05T01:25:19.286Z,70.10
2024-03-05T01:27:47.092Z,69.90
2024-03-05T01:30:18.641Z,70.30
2024-03-05T01:32:48.252Z,70.00
2024-03-05T01:35:17.913Z,70.20
2024-03-05T01:37:45.260Z,70.40
2024-03-05T01:40:16.013Z,70.50
2024-03-05T01:42:43.492Z,71.10
2024-03-05T01:45:11.181Z,70.70
2024-03-05T01:47:38.437Z,70.60
2024-03-05T01:50:07.700Z,70.20
2024-03-05T01:52:37.867Z,70.20
2024-03-05T01:55:11.421Z,69.70
2024-03-05T01:57:43.177Z,69.20
2024-03-05T02:00:12.496Z,68.90
2024-03-05T02:02:39.957Z,68.80
2024-03-05T02:05:10.305Z,68.90
2024-03-05T02:07:38.415Z,68.90
2024-03-05T02:10:09.111Z,68.80
2024-03-05T02:12:43.677Z,68.90
2024-03-05T02:15:15.741Z,68.50
2024-03-05T02:17:46.196Z,69.30
2024-03-05T02:20:16.546Z,69.80
2024-03-05T02:22:44.449Z,69.40
2024-03-05T02:25:11.863Z,69.50
2024-03-05T02:27:40.241Z,69.70
2024-03-05T02:30:14.135Z,70.80
2024-03-05T02:32:43.500Z,71.00
2024-03-05T02:35:12.488Z,72.20
2024-03-05T02:37:40.343Z,71.90
2024-03-05T02:40:10.355Z,72.70
2024-03-05T02:42:38.435Z,72.60
2024-03-05T02:45:06.406Z,72.30
2024-03-05T02:47:43.868Z,71.90
2024-03-05T02:50:12.345Z,71.40
2024-03-05T02:52:40.633Z,71.50
2024-03-05T02:55:11.511Z,71.40
2024-03-05T02:57:43.172Z,71.30
2024-03-05T03:00:11.998Z,71.40
2024-03-05T03:02:39.200Z,71.10
2024-03-05T03:05:07.322Z,71.30
2024-03-05T03:07:34.828Z,70.90
2024-03-05T03:10:02.086Z,70.50
2024-03-05T03:12:29.280Z,70.60
2024-03-05T03:14:56.543Z,70.20
2024-03-05T03:17:24.013Z,70.30
2024-03-05T03:19:51.537Z,70.90
2024-03-05T03:22:19.144Z,70.90
2024-03-05T03:24:46.604Z,70.60
2024-03-05T03:27:14.352Z,69.90
2024-03-05T03:29:42.316Z,70.40
2024-03-05T03:32:11.818Z,70.50
2024-03-05T03:34:42.745Z,69.90
2024-03-05T03:37:10.214Z,70.10
2024-03-05T03:39:37.565Z,70.00
2024-03-05T03:42:04.850Z,70.10
2024-03-05T03:44:34.020Z,69.90
2024-03-05T03:47:06.210Z,70.00
2024-03-05T03:49:34.073Z,70.30
2024-03-05T03:52:01.677Z,71.00
2024-03-05T03:54:28.859Z,71.30
2024-03-05T03:56:56.499Z,71.80
2024-03-05T03:59:26.731Z,71.70
2024-03-05T04:01:56.788Z,71.60
2024-03-05T04:04:25.338Z,72.10
2024-03-05T04:06:56.175Z,72.50
2024-03-05T04:09:23.604Z,72.90
2024-03-05T04:11:51.164Z,73.30
2024-03-05T04:14:20.581Z,73.50
2024-03-05T04:16:48.040Z,73.90
2024-03-05T04:19:15.567Z,74.30
2024-03-05T04:21:44.022Z,74.80
2024-03-05T04:24:16.872Z,75.00
2024-03-05T04:26:49.570Z,75.30
2024-03-05T04:29:21.120Z,75.30
2024-03-05T04:32:06.832Z,75.40
2024-03-05T04:34:34.456Z,75.60
2024-03-05T04:37:02.029Z,75.90
2024-03-05T04:39:29.648Z,76.00
2024-03-05T04:41:56.735Z,76.00
2024-03-05T04:44:26.096Z,76.30
2024-03-05T04:46:53.533Z,76.60
2024-03-05T04:49:21.183Z,77.50
2024-03-05T04:51:48.508Z,77.60
2024-03-05T04:54:15.972Z,77.20
2024-03-05T04:56:43.226Z,77.40
2024-03-05T04:59:10.939Z,77.00
2024-03-05T05:01:41.469Z,77.70
2024-03-05T05:04:08.772Z,77.60
2024-03-05T05:06:35.945Z,77.80
2024-03-05T05:09:07.108Z,78.00
2024-03-05T05:11:35.496Z,78.50
2024-03-05T05:14:02.923Z,79.00
2024-03-05T05:16:30.392Z,78.80
2024-03-05T05:18:57.814Z,78.90
2024-03-05T05:21:25.889Z,78.90
2024-03-05T05:23:53.259Z,78.40
2024-03-05T05:26:20.625Z,78.00
2024-03-05T05:28:47.867Z,77.80
2024-03-05T05:31:26.919Z,77.80
2024-03-05T05:33:55.070Z,77.30
2024-03-05T05:36:22.473Z,76.90
2024-03-05T05:38:52.838Z,76.50
2024-03-05T05:41:19.980Z,76.40
2024-03-05T05:43:50.243Z,76.60
2024-03-05T05:46:20.469Z,76.40
2024-03-05T05:48:50.886Z,76.60
2024-03-05T05:51:19.833Z,77.00
2024-03-05T05:53:47.320Z,76.40
2024-03-05T05:56:18.377Z,75.60
2024-03-05T05:58:46.191Z,75.90
2024-03-05T06:01:15.537Z,75.10
2024-03-05T06:03:49.012Z,74.70
2024-03-05T06:06:21.425Z,75.70
2024-03-05T06:08:51.497Z,74.80
2024-03-05T06:11:19.202Z,74.90
2024-03-05T06:13:46.805Z,75.30
2024-03-05T06:16:14.165Z,75.50
2024-03-05T06:18:41.542Z,75.60
2024-03-05T06:21:09.058Z,75.60
2024-03-05T06:23:36.559Z,75.90
2024-03-05T06:26:04.024Z,75.70
2024-03-05T06:28:31.691Z,76.10
2024-03-05T06:31:01.681Z,75.90
2024-03-05T06:33:31.351Z,76.70
2024-03-05T06:35:59.570Z,76.20
2024-03-05T06:38:27.001Z,75.70
2024-03-05T06:40:56.400Z,75.20
2024-03-05T06:43:33.171Z,75.20
2024-03-05T06:46:04.304Z,75.40
2024-03-05T06:48:34.397Z,75.50
2024-03-05T06:51:05.121Z,74.50
2024-03-05T06:53:52.891Z,74.20
2024-03-05T06:56:38.985Z,73.10
2024-03-05T06:59:06.437Z,72.80
2024-03-05T07:01:36.230Z,72.70
2024-03-05T07:04:07.044Z,73.00
2024-03-05T07:06:37.234Z,72.90
2024-03-05T07:09:04.752Z,73.20
2024-03-05T07:11:32.044Z,72.20
2024-03-05T07:14:03.849Z,72.30
2024-03-05T07:16:34.919Z,71.60
2024-03-05T07:19:02.916Z,71.20
2024-03-05T07:21:30.206Z,71.60
2024-03-05T07:23:59.142Z,71.60
2024-03-05T07:26:26.768Z,72.00
2024-03-05T07:28:54.294Z,71.30
2024-03-05T07:31:21.805Z,71.70
2024-03-05T07:33:52.933Z,70.80
2024-03-05T07:36:21.800Z,70.60
2024-03-05T07:38:49.182Z,70.40
2024-03-05T07:41:26.658Z,70.70
2024-03-05T07:44:01.201Z,70.80
2024-03-05T07:46:29.391Z,70.40
2024-03-05T07:49:00.081Z,71.50
2024-03-05T07:51:29.470Z,71.00
2024-03-05T07:54:00.949Z,70.90
2024-03-05T07:56:31.397Z,70.70
2024-03-05T07:59:01.214Z,70.40
2024-03-05T08:01:29.102Z,69.50
2024-03-05T08:03:56.608Z,69.60
2024-03-05T08:06:23.867Z,69.60
2024-03-05T08:08:51.209Z,69.70
2024-03-05T08:11:18.648Z,69.70
2024-03-05T08:13:47.513Z,69.60
2024-03-05T08:16:14.931Z,70.00
2024-03-05T08:18:42.792Z,70.70
2024-03-05T08:21:09.940Z,70.90
2024-03-05T08:23:37.196Z,71.10
2024-03-05T08:26:06.693Z,71.40
2024-03-05T08:28:34.052Z,71.20
2024-03-05T08:31:01.526Z,71.00
2024-03-05T08:33:29.775Z,69.90
2024-03-05T08:35:57.668Z,69.60
2024-03-05T08:38:26.585Z,69.40
2024-03-05T08:40:54.054Z,69.50
2024-03-05T08:43:21.492Z,68.50
2024-03-05T08:45:48.896Z,68.10
2024-03-05T08:48:16.319Z,68.20
2024-03-05T08:50:43.805Z,68.30
2024-03-05T08:53:11.410Z,68.00
2024-03-05T08:55:38.921Z,68.30
2024-03-05T08:58:06.521Z,68.50
2024-03-05T09:00:42.020Z,69.10
2024-03-05T09:03:13.849Z,69.20
2024-03-05T09:05:44.338Z,68.50
2024-03-05T09:08:14.389Z,69.20
2024-03-05T09:10:42.401Z,69.10
2024-03-05T09:13:11.865Z,69.50
2024-03-05T09:15:44.331Z,69.10
2024-03-05T09:18:14.720Z,70.30
2024-03-05T09:20:43.819Z,71.30
2024-03-05T09:23:11.502Z,71.70
2024-03-05T09:25:43.537Z,71.90
2024-03-05T09:28:12.088Z,71.70
2024-03-05T09:30:40.469Z,70.80
2024-03-05T09:33:11.607Z,69.30
2024-03-05T09:35:42.292Z,67.70
2024-03-05T09:38:10.796Z,67.40
2024-03-05T09:49:54.003Z,67.80
2024-03-05T09:52:21.471Z,67.80
2024-03-05T09:54:49.009Z,68.10
2024-03-05T09:57:22.079Z,67.10
2024-03-05T09:59:51.789Z,64.80
2024-03-05T10:02:19.582Z,64.40
2024-03-05T10:04:47.553Z,64.50
2024-03-05T10:07:51.243Z,64.80
2024-03-05T10:10:23.336Z,65.30
2024-03-05T10:12:56.708Z,64.10
2024-03-05T10:15:30.200Z,63.20
2024-03-05T10:17:58.590Z,62.20
2024-03-05T10:20:34.437Z,61.70
2024-03-05T10:23:05.007Z,60.70
2024-03-05T10:25:37.474Z,61.60
2024-03-05T10:28:06.534Z,61.70
2024-03-05T10:30:36.416Z,61.10
2024-03-05T10:33:11.596Z,61.80
2024-03-05T10:35:40.349Z,61.80
2024-03-05T10:38:19.515Z,61.30
2024-03-05T10:40:48.228Z,61.00
2024-03-05T10:43:20.455Z,61.30
2024-03-05T10:45:52.339Z,62.10
2024-03-05T10:48:58.714Z,61.90
2024-03-05T10:51:36.820Z,62.00
2024-03-05T10:54:06.114Z,61.00
2024-03-05T10:56:43.333Z,59.70
2024-03-05T10:59:17.749Z,58.80
2024-03-05T11:01:46.590Z,58.10
2024-03-05T11:04:17.118Z,58.30
2024-03-05T11:06:46.860Z,58.40
2024-03-05T11:09:24.751Z,58.70
2024-03-05T11:12:04.720Z,58.80
2024-03-05T11:14:32.041Z,59.00
2024-03-05T11:17:11.823Z,59.40
2024-03-05T14:48:32.728Z,64.40
2024-03-05T14:51:01.184Z,65.70
2024-03-05T14:53:28.791Z,67.40
2024-03-05T14:55:56.373Z,67.30
2024-03-05T14:58:28.217Z,68.30
2024-03-05T15:00:58.912Z,69.80
2024-03-05T15:03:28.780Z,71.30
2024-03-05T15:05:59.056Z,73.10
2024-03-05T15:08:26.364Z,74.80
2024-03-05T15:10:56.877Z,76.20
2024-03-05T15:13:26.383Z,76.70
2024-03-05T15:15:53.776Z,78.10
2024-03-05T15:18:24.323Z,78.70
2024-03-05T15:20:56.184Z,81.40
2024-03-05T15:23:26.512Z,81.80
2024-03-05T15:25:59.148Z,83.50
2024-03-05T15:28:31.650Z,83.30
2024-03-05T15:30:59.915Z,84.60
2024-03-05T15:33:27.702Z,85.10
2024-03-05T15:35:55.173Z,86.40
2024-03-05T15:38:26.067Z,86.90
2024-03-05T15:40:56.015Z,87.60
2024-03-05T15:43:23.614Z,87.90
2024-03-05T15:45:52.992Z,88.40
2024-03-05T15:48:22.960Z,88.80
2024-03-05T15:50:52.937Z,89.40
2024-03-05T15:53:25.536Z,89.90
2024-03-05T15:56:02.865Z,90.20
2024-03-05T15:58:45.384Z,90.50
2024-03-05T16:01:13.545Z,90.30
2024-03-05T16:03:57.204Z,90.30
2024-03-05T16:06:34.061Z,90.30
2024-03-05T16:09:01.394Z,90.20
2024-03-05T16:11:28.843Z,90.00
2024-03-05T16:13:56.387Z,88.10
2024-03-05T16:16:25.166Z,87.00
2024-03-05T16:18:52.925Z,87.60
2024-03-05T16:21:21.607Z,88.10
2024-03-05T16:23:51.536Z,88.50
2024-03-05T16:26:19.379Z,88.60
2024-03-05T16:28:50.924Z,88.80
2024-03-05T16:31:18.476Z,89.20
2024-03-05T16:33:47.162Z,89.40
2024-03-05T16:36:22.217Z,90.10
2024-03-05T16:38:50.081Z,90.50
2024-03-05T16:41:17.215Z,90.70
2024-03-05T16:43:45.110Z,90.60
2024-03-05T16:46:13.157Z,90.90
2024-03-05T16:48:43.586Z,90.80
2024-03-05T16:51:11.970Z,91.10
2024-03-05T16:53:42.289Z,90.90
2024-03-05T16:56:09.850Z,90.90
2024-03-05T16:58:39.974Z,91.30
2024-03-05T17:01:16.067Z,91.40
2024-03-05T17:03:46.486Z,91.60
2024-03-05T17:06:20.370Z,91.70
2024-03-05T17:08:50.159Z,91.60
2024-03-05T17:11:17.769Z,91.50
2024-03-05T17:13:47.746Z,91.30
2024-03-05T17:16:16.604Z,91.40
2024-03-05T17:18:44.009Z,91.40
2024-03-05T17:21:11.458Z,91.30
2024-03-05T17:23:43.606Z,90.90
2024-03-05T17:26:13.450Z,90.30
2024-03-05T17:28:42.449Z,89.30
2024-03-05T17:31:10.099Z,89.40
2024-03-05T17:33:39.121Z,89.10
2024-03-05T17:36:06.769Z,89.30
2024-03-05T17:38:36.625Z,89.40
2024-03-05T17:41:04.931Z,89.30
2024-03-05T17:43:34.789Z,88.80
2024-03-05T17:46:04.093Z,88.30
2024-03-05T17:48:31.756Z,88.60
2024-03-05T17:50:59.875Z,88.30
2024-03-05T17:53:29.722Z,88.50
2024-03-05T17:55:57.273Z,89.20
2024-03-05T17:58:25.036Z,89.00
2024-03-05T18:00:52.676Z,88.90
2024-03-05T18:03:23.775Z,89.00
2024-03-05T18:06:10.879Z,88.40
2024-03-05T18:08:38.807Z,87.30
2024-03-05T18:11:07.206Z,86.70
2024-03-05T18:13:34.929Z,85.70
2024-03-05T18:16:03.482Z,84.50
2024-03-05T18:18:31.403Z,84.80
2024-03-05T18:20:59.938Z,84.80
2024-03-05T18:23:27.680Z,84.30
2024-03-05T18:25:55.086Z,83.50
2024-03-05T18:28:24.510Z,83.90
2024-03-05T18:30:52.188Z,83.60
2024-03-05T18:33:22.719Z,82.10
2024-03-05T18:35:52.038Z,82.50
2024-03-05T18:38:27.897Z,82.90
2024-03-05T18:41:03.046Z,83.50
2024-03-05T18:43:33.945Z,83.50
2024-03-05T18:46:02.318Z,83.30
2024-03-05T18:48:31.965Z,82.60
2024-03-05T18:51:02.380Z,82.50
2024-03-05T18:53:39.366Z,82.20
2024-03-05T18:56:13.635Z,82.00
2024-03-05T18:58:42.881Z,82.70
2024-03-05T19:01:11.910Z,83.30
2024-03-05T19:03:40.612Z,83.60
2024-03-05T19:06:08.033Z,83.40
2024-03-05T19:08:35.332Z,83.60
2024-03-05T19:11:02.599Z,83.70
2024-03-05T19:13:32.963Z,83.40
2024-03-05T19:16:02.758Z,83.70
2024-03-05T19:18:29.960Z,83.70
2024-03-05T19:21:02.735Z,84.10
2024-03-05T19:23:30.141Z,84.40
2024-03-05T19:26:02.108Z,84.40
2024-03-05T19:28:34.760Z,84.60
2024-03-05T19:31:03.917Z,84.40
2024-03-05T19:33:32.740Z,84.80
2024-03-05T19:36:01.743Z,84.60
2024-03-05T19:38:31.899Z,84.50
2024-03-05T19:41:05.173Z,84.40
2024-03-05T19:43:37.747Z,83.50
2024-03-05T19:46:05.887Z,83.40
2024-03-05T19:48:35.282Z,83.20
2024-03-05T19:51:03.629Z,82.80
2024-03-05T19:53:31.190Z,81.80
2024-03-05T19:55:59.003Z,82.00
2024-03-05T19:58:26.656Z,82.20
2024-03-05T20:00:57.286Z,82.30
2024-03-05T20:03:29.325Z,82.20
2024-03-05T20:06:01.677Z,82.20
2024-03-05T20:08:37.017Z,82.50
2024-03-05T20:11:10.019Z,82.70
2024-03-05T20:13:39.624Z,83.40
2024-03-05T20:16:13.924Z,83.40
2024-03-05T20:18:44.739Z,83.70
2024-03-05T20:21:12.103Z,84.50
2024-03-05T20:23:39.747Z,84.10
2024-03-05T20:26:09.416Z,83.30
2024-03-05T20:28:42.986Z,84.10
2024-03-05T20:31:12.695Z,84.00
2024-03-05T20:33:40.339Z,83.20
2024-03-05T20:36:10.825Z,82.60
2024-03-05T20:38:42.513Z,82.60
2024-03-05T20:41:09.933Z,82.60
2024-03-05T20:43:46.227Z,82.70
2024-03-05T20:46:15.875Z,82.10
2024-03-05T20:48:45.224Z,82.50
2024-03-05T20:51:13.757Z,82.60
2024-03-05T20:53:44.497Z,82.80
2024-03-05T20:56:13.096Z,82.60
2024-03-05T20:58:55.176Z,82.20
2024-03-05T21:01:24.834Z,82.50
2024-03-05T21:03:57.168Z,82.60
2024-03-05T21:06:27.917Z,82.30
2024-03-05T21:09:00.689Z,82.50
2024-03-05T21:11:28.913Z,83.00
2024-03-05T21:13:58.015Z,82.80
2024-03-05T21:16:26.933Z,83.10
2024-03-05T21:18:57.501Z,83.30
2024-03-05T21:21:26.425Z,82.60
2024-03-05T21:23:57.636Z,82.30
2024-03-05T21:26:35.635Z,83.00
2024-03-05T21:29:17.675Z,83.20
2024-03-05T21:31:48.830Z,83.80
2024-03-05T21:34:17.609Z,84.20
2024-03-05T21:36:49.619Z,84.30
2024-03-05T21:39:20.977Z,84.30
2024-03-05T21:41:50.128Z,84.70
2024-03-05T21:44:26.170Z,85.10
2024-03-05T21:47:05.820Z,85.90
2024-03-05T21:49:37.223Z,87.40
2024-03-05T21:52:06.028Z,88.20
2024-03-05T21:54:41.371Z,89.00
2024-03-05T21:57:09.895Z,89.20
2024-03-05T21:59:38.632Z,89.90
2024-03-05T22:02:08.456Z,90.10
2024-03-05T22:04:37.519Z,90.20
2024-03-05T22:07:10.395Z,90.10
2024-03-05T22:09:39.993Z,90.30
2024-03-05T22:12:11.339Z,90.20
2024-03-05T22:14:45.311Z,90.20
2024-03-05T22:17:16.267Z,90.30
2024-03-05T22:19:45.489Z,90.50
2024-03-05T22:22:14.602Z,90.60
2024-03-05T22:24:43.487Z,90.80
2024-03-05T22:27:11.250Z,91.20
2024-03-05T22:29:40.415Z,91.20
2024-03-05T22:32:08.920Z,91.40
2024-03-05T22:34:38.228Z,91.50
2024-03-05T22:37:06.257Z,91.20
2024-03-05T22:39:34.537Z,91.00
2024-03-05T22:42:02.936Z,91.20
2024-03-05T22:44:33.378Z,91.40
2024-03-05T22:47:01.375Z,91.40
2024-03-05T22:49:29.799Z,91.40
2024-03-05T22:51:57.816Z,91.60
2024-03-05T22:54:25.895Z,91.80
2024-03-05T22:56:54.475Z,91.90
2024-03-05T22:59:22.838Z,91.90
2024-03-05T23:01:55.754Z,91.90
2024-03-05T23:04:24.182Z,92.20
2024-03-05T23:06:52.796Z,92.10
2024-03-05T23:09:23.850Z,92.00
2024-03-05T23:11:55.858Z,92.10
2024-03-05T23:14:24.766Z,92.20
2024-03-05T23:16:53.022Z,92.30
2024-03-05T23:19:21.818Z,92.40
2024-03-05T23:21:53.046Z,92.50
2024-03-05T23:24:24.922Z,92.50
2024-03-05T23:26:55.995Z,92.60
2024-03-05T23:29:26.923Z,92.60
2024-03-05T23:31:59.963Z,92.40
2024-03-05T23:34:28.340Z,92.60
2024-03-05T23:37:00.638Z,92.40
2024-03-05T23:39:31.326Z,92.60
2024-03-05T23:42:02.566Z,92.40
2024-03-05T23:44:30.466Z,92.30
2024-03-05T23:47:05.996Z,92.40
2024-03-05T23:49:37.354Z,92.10
2024-03-05T23:52:05.387Z,92.20
2024-03-05T23:54:35.815Z,92.10
2024-03-05T23:57:11.118Z,92.40
2024-03-05T23:59:44.964Z,92.60
